Manito, IL (61546)

3:13 AM CDT on July 30, 2015 (GMT -0500)
Manito | | Change Station
CLOSE
Current Station
Personal Weather Station
Location: Manito, IL
Elevation: 522 ft
Nearby Weather Stations
Active Advisory: Flood Warning

Elev 522 ft 40.43 °N, 89.78 °W | Updated 3 seconds ago

Clear
Clear
66.6 °F
Feels Like 66.6 °F
N
0.0
Wind Variable Wind from WSW
Gusts 0.0 mph

Today
High -- | Low -- °F
--% Chance of Precip.
Yesterday
High -- | Low -- °F
Precip. -- in
5:54 AM 8:16 PM
Waxing Gibbous, 98% visible
Pressure 30.09 in
Visibility 10.0 miles
Clouds Clear
Dew Point 63 °F
Humidity 88%
Rainfall 0.00 in
Snow Depth Not available.
UV 0.0 out of 12
Pollen .70 out of 12
Air Quality Not available.
Flu Activity Not available.
METAR KPIA 300754Z 28004KT 10SM CLR 20/16 A3010 RMK AO2 SLP187 T02000156

More Conditions Fewer Conditions

Pressure 30.09 in
Visibility 10.0 miles
Clouds Clear
Dew Point 63 °F
Humidity 88%
Rainfall 0.00 in
Snow Depth Not available.
UV 0.0 out of 12
Pollen .70 out of 12
Air Quality Not available.
Flu Activity Not available.
METAR KPIA 300754Z 28004KT 10SM CLR 20/16 A3010 RMK AO2 SLP187 T02000156

More Conditions Fewer Conditions

10-Day Weather Forecast

×

Almanac

Astronomy

Jul. 30, 2015 Rise Set
Actual Time
Civil Twilight
Nautical Twilight
Astronomical Twilight
Moon
Length of Visible Light
Length of Day
Tomorrow will be .
, % of the Moon is Illuminated

Today's Extremes

State Highs State Lows

Community

WunderPhotos

Upload Photos

1,842,315 photos uploaded!

WunderBlogs® & News

Nearby

Air Quality

  Air Quality AQ Index Pollutant
Not available.

Snow Depth

Station Depth Elevation

Earthquake Activity

City Distance Mag. Time & Date
Minimum magnitude displayed is 2.5.

Coastal Water Temperatures

Place Temperature

Stations

Nearby Weather Stations

Station Location Temp. Windchill Dew Point Humidity Wind Precip. Elev Updated Type
                   
Flood Warning
Statement as of 8:00 PM CDT on July 29, 2015

The Flood Warning continues for
the Illinois River at Havana.
* Until further notice.
* At 745 PM Wednesday the stage was 19.3 feet.
* Flood stage is 14.0 feet.
* Moderate flooding is occurring and moderate flooding is forecast.
* Forecast... the river will continue to fall to a stage of 18.8 feet
by Friday morning.



                  Fld observed forecast 6am
location stg stg day time Thu Fri Sat

Illinois River
Havana 14 19.3 Wed 8 PM 19.1 18.8 18.5



Lat... Lon 4053 8988 4047 8980 4034 9002 4012 9017
      4018 9023 4039 9010